Time;durP1;ratioP1;P1;durP2;ratioP2;P2;SDS_P1;SDS_P2;PMS_P1;PMS_P2;Temp;Humidity;BMP_temperature;BMP_pressure;BME280_temperature;BME280_humidity;BME280_pressure;Samples;Min_cycle;Max_cycle;Signal;HPM_P1;HPM_P2
2021/07/24 00:00:40;;;;;;;18.95;8.15;;;;;;;26.05;43.23;100092.72;5093919;28;20044;-63
2021/07/24 00:03:08;;;;;;;15.90;8.77;;;;;;;25.93;43.74;100092.53;5075851;28;20059;-63
2021/07/24 00:05:35;;;;;;;18.25;8.90;;;;;;;26.12;43.60;100106.72;5093793;28;20043;-64
2021/07/24 00:08:02;;;;;;;12.00;8.40;;;;;;;26.17;43.11;100105.44;5093745;28;20430;-65
2021/07/24 00:10:30;;;;;;;16.20;8.70;;;;;;;26.01;43.78;100116.59;5093501;28;20075;-63
2021/07/24 00:12:57;;;;;;;14.25;8.52;;;;;;;26.13;43.39;100122.44;5093974;28;20043;-64
2021/07/24 00:15:24;;;;;;;20.27;8.68;;;;;;;26.21;43.54;100101.28;5093829;28;20056;-63
2021/07/24 00:17:51;;;;;;;15.25;8.82;;;;;;;26.15;43.68;100102.22;5093839;28;20546;-64
2021/07/24 00:20:19;;;;;;;17.80;9.10;;;;;;;26.27;43.24;100079.78;5093637;28;20051;-63
2021/07/24 00:22:46;;;;;;;20.58;8.70;;;;;;;26.16;43.61;100093.31;5093689;28;20055;-64
2021/07/24 00:25:13;;;;;;;20.35;9.25;;;;;;;26.21;43.33;100092.81;5093322;28;20056;-63
2021/07/24 00:27:40;;;;;;;19.98;9.32;;;;;;;26.42;43.35;100085.94;5093478;28;20056;-63
2021/07/24 00:30:08;;;;;;;18.38;8.70;;;;;;;26.33;43.24;100091.34;5094666;28;20407;-63
2021/07/24 00:32:37;;;;;;;20.97;9.23;;;;;;;26.42;43.17;100086.72;5079858;28;20055;-63
2021/07/24 00:35:05;;;;;;;15.75;8.77;;;;;;;26.25;43.21;100087.91;5097713;28;20060;-63
2021/07/24 00:37:32;;;;;;;16.10;8.85;;;;;;;26.12;43.98;100086.94;5079661;28;20051;-64
2021/07/24 00:39:59;;;;;;;19.75;8.75;;;;;;;25.90;44.48;100079.28;5097674;28;20055;-65
2021/07/24 00:42:27;;;;;;;17.10;9.05;;;;;;;25.87;44.71;100080.16;5067990;28;20048;-65
2021/07/24 00:45:00;;;;;;;18.67;8.82;;;;;;;25.78;45.03;100089.19;5059319;28;20059;-63
2021/07/24 00:47:40;;;;;;;26.40;9.50;;;;;;;26.01;44.58;100092.00;5059275;28;20056;-63
2021/07/24 00:50:23;;;;;;;15.50;8.73;;;;;;;25.95;44.96;100110.66;5061621;28;20451;-63
2021/07/24 00:52:52;;;;;;;22.25;9.27;;;;;;;26.07;44.45;100112.84;5059499;28;20055;-64
2021/07/24 00:55:19;;;;;;;16.63;8.68;;;;;;;25.88;44.93;100115.63;5076936;28;20064;-54
2021/07/24 00:57:48;;;;;;;17.65;9.50;;;;;;;25.83;45.58;100114.09;5096448;28;20486;-54
2021/07/24 01:00:16;;;;;;;18.15;9.68;;;;;;;25.84;45.32;100107.22;5097403;28;20426;-55
2021/07/24 01:02:43;;;;;;;16.60;8.82;;;;;;;25.93;45.47;100096.16;5097223;28;20048;-51
2021/07/24 01:05:15;;;;;;;19.80;9.80;;;;;;;25.80;45.66;100083.13;5097273;28;20048;-53
2021/07/24 01:07:42;;;;;;;17.20;9.35;;;;;;;25.83;45.59;100096.38;5062376;28;20066;-54
2021/07/24 01:10:10;;;;;;;19.65;10.55;;;;;;;25.97;45.59;100082.78;5078903;28;20617;-54
2021/07/24 01:12:52;;;;;;;21.90;10.80;;;;;;;26.01;45.62;100085.53;5078764;28;20253;-53
2021/07/24 01:15:19;;;;;;;15.65;9.55;;;;;;;26.00;45.39;100100.88;5079028;28;20048;-53
2021/07/24 01:17:47;;;;;;;19.42;9.73;;;;;;;26.11;45.15;100081.72;5096837;28;20048;-54
2021/07/24 01:20:16;;;;;;;15.75;9.30;;;;;;;25.86;46.55;100092.66;5097370;28;20522;-54
2021/07/24 01:22:44;;;;;;;19.52;9.43;;;;;;;25.49;47.67;100091.72;5062545;28;20530;-50
2021/07/24 01:25:12;;;;;;;16.02;8.98;;;;;;;25.14;49.00;100103.56;5078522;28;20075;-51
2021/07/24 01:27:43;;;;;;;21.00;9.63;;;;;;;25.01;50.21;100104.56;5078616;28;20051;-50
2021/07/24 01:30:13;;;;;;;19.48;9.48;;;;;;;25.03;50.68;100108.56;5078625;28;20048;-54
2021/07/24 01:32:41;;;;;;;25.20;9.63;;;;;;;25.05;51.38;100111.78;5078610;28;20431;-52
2021/07/24 01:35:10;;;;;;;23.45;9.07;;;;;;;24.64;54.68;100118.75;5096515;28;20040;-52
2021/07/24 01:37:40;;;;;;;18.33;9.63;;;;;;;24.48;55.71;100122.97;5078620;28;20047;-52
2021/07/24 01:40:08;;;;;;;15.57;8.85;;;;;;;24.31;57.25;100128.81;5096675;28;20067;-55
2021/07/24 01:42:35;;;;;;;17.15;8.85;;;;;;;24.30;57.83;100132.88;5095479;28;20535;-50
2021/07/24 01:45:02;;;;;;;20.58;8.98;;;;;;;23.98;59.55;100130.38;5096347;28;20056;-52
2021/07/24 01:47:30;;;;;;;17.30;8.68;;;;;;;24.27;58.97;100144.94;5078277;28;20055;-53
2021/07/24 01:52:46;;;;;;;16.05;8.35;;;;;;;24.01;60.94;100131.56;5096260;28;20380;-53
2021/07/24 01:55:18;;;;;;;12.35;7.88;;;;;;;23.96;61.60;100130.00;5077997;28;20056;-51
2021/07/24 01:58:08;;;;;;;11.70;6.00;;;;;;;23.51;62.72;100128.41;5024725;28;20052;-56
2021/07/24 02:00:44;;;;;;;14.02;6.30;;;;;;;23.46;62.71;100140.13;5022833;28;20052;-55
2021/07/24 02:03:35;;;;;;;10.32;5.70;;;;;;;23.34;62.62;100147.00;5038037;28;20076;-51
2021/07/24 02:06:23;;;;;;;9.90;5.93;;;;;;;23.28;63.13;100137.44;5027082;28;20114;-55
2021/07/24 02:09:27;;;;;;;9.15;5.10;;;;;;;23.21;62.93;100140.28;5047903;28;20049;-54
2021/07/24 02:12:05;;;;;;;11.50;5.60;;;;;;;23.36;61.92;100138.19;5038148;28;20045;-55
2021/07/24 02:14:42;;;;;;;7.32;4.80;;;;;;;23.37;61.24;100140.59;5008155;28;20404;-54
2021/07/24 02:17:16;;;;;;;18.30;4.88;;;;;;;23.41;61.25;100141.34;5037638;28;20053;-54
2021/07/24 02:19:45;;;;;;;12.27;5.07;;;;;;;23.42;60.71;100156.19;5038265;28;20053;-54
2021/07/24 02:22:13;;;;;;;9.55;3.85;;;;;;;23.30;60.65;100165.94;5037717;28;20103;-49
2021/07/24 02:24:49;;;;;;;6.78;3.88;;;;;;;23.26;60.69;100167.94;5037680;28;20532;-54
2021/07/24 02:27:17;;;;;;;8.50;4.30;;;;;;;23.21;61.12;100173.19;5037615;28;20063;-53
2021/07/24 02:29:45;;;;;;;7.25;4.35;;;;;;;23.42;60.42;100164.63;5021218;28;20515;-54
2021/07/24 02:32:18;;;;;;;8.18;4.25;;;;;;;23.69;nan;100162.81;5055403;28;20067;-52
2021/07/24 02:34:46;;;;;;;6.50;4.07;;;;;;;23.79;58.81;100161.13;5037497;28;20048;-52
2021/07/24 02:37:13;;;;;;;9.00;4.18;;;;;;;23.97;57.80;100161.75;5055865;28;20052;-53
2021/07/24 02:39:42;;;;;;;10.10;4.40;;;;;;;23.76;58.74;100167.56;5037450;28;20048;-54
2021/07/24 02:42:09;;;;;;;8.05;4.13;;;;;;;23.61;59.28;100168.91;5055241;28;20037;-51
2021/07/24 02:44:40;;;;;;;8.23;4.65;;;;;;;23.35;59.99;100161.88;5037201;28;20048;-54
2021/07/24 02:47:07;;;;;;;7.53;4.40;;;;;;;23.15;60.38;100169.22;5055078;28;20060;-51
2021/07/24 02:49:37;;;;;;;9.23;4.28;;;;;;;23.05;60.62;100168.06;5037201;28;20048;-51
2021/07/24 02:52:05;;;;;;;6.03;3.85;;;;;;;22.97;61.00;100162.91;5021113;28;20041;-54
2021/07/24 02:54:34;;;;;;;7.97;4.20;;;;;;;22.72;61.57;100156.59;5054398;28;20623;-54
2021/07/24 02:57:02;;;;;;;8.15;4.15;;;;;;;22.98;60.84;100161.72;5080916;28;20442;-55
2021/07/24 02:59:31;;;;;;;7.85;4.03;;;;;;;23.30;59.69;100160.31;5060231;28;20056;-56
2021/07/24 03:01:59;;;;;;;7.50;4.05;;;;;;;23.29;59.26;100158.69;5060828;28;20044;-52
2021/07/24 03:04:26;;;;;;;8.90;4.00;;;;;;;23.16;59.42;100157.56;5094813;28;20048;-55
2021/07/24 03:06:54;;;;;;;8.85;3.85;;;;;;;22.99;59.49;100158.50;5076686;28;20048;-53
2021/07/24 03:09:22;;;;;;;8.32;4.00;;;;;;;22.86;59.88;100156.53;5094997;28;20059;-56
2021/07/24 03:11:49;;;;;;;11.25;4.00;;;;;;;23.08;59.06;100163.66;5076772;28;20043;-53
2021/07/24 03:14:16;;;;;;;9.45;4.18;;;;;;;22.99;58.88;100169.72;5094738;28;20514;-55
2021/07/24 03:16:43;;;;;;;9.75;4.15;;;;;;;22.81;59.70;100174.63;5094950;28;20048;-54
2021/07/24 03:19:11;;;;;;;10.02;4.60;;;;;;;23.02;59.32;100187.75;5076753;28;20264;-54
2021/07/24 03:21:38;;;;;;;8.48;4.63;;;;;;;22.90;59.42;100179.78;5095064;28;20415;-55
2021/07/24 03:24:05;;;;;;;8.75;3.70;;;;;;;22.68;59.78;100187.53;5094495;28;20059;-54
2021/07/24 03:26:32;;;;;;;7.28;4.10;;;;;;;22.58;60.38;100193.19;5094799;28;20052;-55
2021/07/24 03:29:00;;;;;;;11.27;4.38;;;;;;;22.75;59.88;100197.94;5094578;28;20052;-53
2021/07/24 03:31:27;;;;;;;7.03;4.30;;;;;;;23.05;59.13;100198.16;5094576;28;20044;-56
2021/07/24 03:33:54;;;;;;;9.02;4.25;;;;;;;23.16;58.94;100210.97;5094323;28;20717;-53
2021/07/24 03:36:21;;;;;;;9.15;3.80;;;;;;;23.37;58.36;100207.25;5094572;28;20047;-63
2021/07/24 03:38:49;;;;;;;8.05;4.07;;;;;;;23.32;58.56;100210.50;5093975;28;20051;-63
2021/07/24 03:41:16;;;;;;;9.93;6.68;;;;;;;23.29;58.71;100208.50;5094428;28;20047;-64
2021/07/24 03:43:43;;;;;;;13.63;10.15;;;;;;;23.14;59.12;100215.38;5076015;28;20044;-65
2021/07/24 03:46:15;;;;;;;9.48;4.43;;;;;;;22.86;59.89;100215.53;5083146;28;20074;-63
2021/07/24 03:48:43;;;;;;;8.43;3.90;;;;;;;22.65;60.32;100238.88;5073633;28;20055;-63
2021/07/24 03:51:11;;;;;;;6.38;3.75;;;;;;;22.91;59.93;100260.84;5074006;28;20044;-63
2021/07/24 03:53:39;;;;;;;10.05;4.22;;;;;;;23.00;59.50;100280.06;5073621;28;20495;-63
2021/07/24 03:56:16;;;;;;;9.77;4.25;;;;;;;23.01;59.25;100284.50;5073952;28;20044;-62
2021/07/24 03:58:47;;;;;;;7.05;4.10;;;;;;;22.91;59.38;100283.31;5074101;28;20059;-64
2021/07/24 04:01:14;;;;;;;10.02;4.28;;;;;;;22.98;58.80;100283.28;5073870;28;20067;-63
2021/07/24 04:03:41;;;;;;;8.13;4.10;;;;;;;22.98;58.78;100276.88;5073400;28;20060;-63
2021/07/24 04:06:16;;;;;;;11.35;3.65;;;;;;;22.92;59.14;100284.94;5073071;28;20566;-63
2021/07/24 04:08:43;;;;;;;8.15;4.60;;;;;;;23.05;59.00;100283.25;5055396;28;20052;-63
2021/07/24 04:11:11;;;;;;;10.35;4.00;;;;;;;22.88;59.76;100289.75;5073556;28;20545;-63
2021/07/24 04:13:38;;;;;;;10.40;4.70;;;;;;;22.84;59.86;100288.19;5074016;28;20053;-64
2021/07/24 04:16:06;;;;;;;11.68;4.72;;;;;;;22.65;60.46;100300.66;5054989;28;20630;-63
2021/07/24 04:18:34;;;;;;;8.63;4.18;;;;;;;22.76;60.56;100314.66;5073442;28;20053;-63
2021/07/24 04:21:02;;;;;;;10.15;4.72;;;;;;;22.79;60.26;100297.81;5055521;28;20044;-63
2021/07/24 04:23:29;;;;;;;12.48;5.00;;;;;;;22.59;60.67;100299.47;5073289;28;20152;-63
2021/07/24 04:25:56;;;;;;;8.85;4.47;;;;;;;22.57;60.87;100301.06;5073139;28;20068;-63
2021/07/24 04:28:24;;;;;;;9.52;4.53;;;;;;;22.41;61.52;100307.06;5073294;28;20045;-63
2021/07/24 04:30:51;;;;;;;9.50;4.07;;;;;;;22.42;61.58;100291.06;5054849;28;20051;-63
2021/07/24 04:33:18;;;;;;;10.45;4.63;;;;;;;22.59;60.74;100285.44;5073659;28;20506;-63
2021/07/24 04:35:47;;;;;;;10.63;4.55;;;;;;;22.40;61.30;100293.44;5038815;28;20071;-63
2021/07/24 04:38:15;;;;;;;11.77;4.28;;;;;;;22.41;61.51;100290.25;5072993;28;20052;-62
2021/07/24 04:40:43;;;;;;;7.13;4.20;;;;;;;22.52;61.27;100296.66;5073758;28;20049;-63
2021/07/24 04:43:10;;;;;;;10.98;4.70;;;;;;;22.48;61.35;100295.84;5073493;28;20049;-64
2021/07/24 04:45:42;;;;;;;10.35;5.00;;;;;;;22.39;61.15;100295.44;5073315;28;20040;-63
2021/07/24 04:48:10;;;;;;;9.00;4.45;;;;;;;22.28;61.64;100297.50;5073056;28;20052;-64
2021/07/24 04:50:47;;;;;;;8.95;4.72;;;;;;;22.20;61.98;100307.91;5073417;28;20515;-65
2021/07/24 04:53:15;;;;;;;10.27;4.95;;;;;;;21.91;62.97;100320.31;5055269;28;20431;-64
2021/07/24 04:55:42;;;;;;;10.32;4.43;;;;;;;21.97;62.68;100315.91;5074693;28;20064;-63
2021/07/24 04:58:09;;;;;;;9.93;4.75;;;;;;;21.90;63.12;100318.72;5075433;28;20052;-62
2021/07/24 05:00:45;;;;;;;8.43;4.53;;;;;;;21.88;63.51;100323.91;5075218;28;20052;-64
2021/07/24 05:03:16;;;;;;;8.45;4.35;;;;;;;21.83;63.73;100329.91;5093519;28;20047;-64
2021/07/24 05:05:43;;;;;;;6.75;4.50;;;;;;;22.02;63.08;100335.13;5093595;28;20048;-64
2021/07/24 05:08:12;;;;;;;8.38;4.93;;;;;;;21.68;64.17;100344.28;5075534;28;20402;-63
2021/07/24 05:10:39;;;;;;;9.77;4.75;;;;;;;21.76;63.93;100329.88;5093893;28;20044;-64
2021/07/24 05:13:07;;;;;;;9.38;4.72;;;;;;;21.78;63.93;100347.13;5093639;28;20052;-63
2021/07/24 05:15:34;;;;;;;12.35;4.85;;;;;;;22.16;63.21;100339.94;5093931;28;20051;-63
2021/07/24 05:18:01;;;;;;;9.77;4.88;;;;;;;22.09;62.95;100348.38;5078155;28;20055;-62
2021/07/24 05:20:29;;;;;;;9.07;4.68;;;;;;;21.82;63.34;100352.75;5097269;28;20075;-63
2021/07/24 05:22:57;;;;;;;7.90;4.85;;;;;;;21.61;64.88;100356.28;5097449;28;20048;-63
2021/07/24 05:25:24;;;;;;;9.88;4.78;;;;;;;21.73;64.57;100353.09;5097058;28;20058;-64
2021/07/24 05:27:52;;;;;;;12.65;5.10;;;;;;;21.94;63.92;100360.78;5097166;28;20415;-64
2021/07/24 05:30:19;;;;;;;11.95;5.00;;;;;;;21.96;63.93;100356.38;5096708;28;20047;-62
2021/07/24 05:32:46;;;;;;;9.43;5.20;;;;;;;22.16;63.20;100359.59;5097221;28;20056;-63
2021/07/24 05:35:13;;;;;;;9.27;5.38;;;;;;;22.23;63.24;100366.00;5079060;28;20052;-63
2021/07/24 05:37:41;;;;;;;19.10;12.35;;;;;;;22.25;62.86;100362.81;5097035;28;20798;-63
2021/07/24 05:40:09;;;;;;;12.27;8.02;;;;;;;22.07;63.53;100356.41;5096533;28;20043;-63
2021/07/24 05:42:36;;;;;;;10.90;5.43;;;;;;;21.99;63.78;100354.78;5096845;28;20052;-64
2021/07/24 05:45:04;;;;;;;15.38;5.65;;;;;;;21.78;64.15;100354.72;5079241;28;20048;-63
2021/07/24 05:47:32;;;;;;;11.15;5.40;;;;;;;21.92;64.03;100358.38;5078607;28;20062;-63
2021/07/24 05:50:00;;;;;;;10.57;5.13;;;;;;;22.04;63.84;100363.59;5096665;28;20055;-63
2021/07/24 05:52:28;;;;;;;15.52;5.38;;;;;;;22.00;63.75;100362.78;5096535;28;20047;-63
2021/07/24 05:54:56;;;;;;;9.20;5.10;;;;;;;21.94;63.98;100366.38;5061411;28;20056;-63
2021/07/24 05:57:23;;;;;;;11.05;5.32;;;;;;;22.02;63.47;100354.78;5080344;28;20059;-63
2021/07/24 05:59:51;;;;;;;10.63;5.15;;;;;;;22.19;62.98;100359.59;5076275;28;20550;-63
2021/07/24 06:02:18;;;;;;;11.70;5.20;;;;;;;22.12;62.66;100356.78;5076127;28;20389;-64
2021/07/24 06:04:47;;;;;;;20.35;15.40;;;;;;;22.17;62.38;100353.59;5058507;28;20048;-64
2021/07/24 06:07:14;;;;;;;13.27;6.68;;;;;;;22.12;63.01;100356.78;5058395;28;20059;-64
2021/07/24 06:09:42;;;;;;;13.23;4.85;;;;;;;22.31;62.42;100352.81;5058076;28;20049;-64
2021/07/24 06:12:10;;;;;;;12.07;5.40;;;;;;;22.42;61.74;100352.78;5075941;28;20056;-63
2021/07/24 06:14:37;;;;;;;10.48;6.20;;;;;;;22.27;62.06;100333.16;5076082;28;20055;-64
2021/07/24 06:17:04;;;;;;;15.20;7.82;;;;;;;22.00;62.14;100343.16;5076109;28;20052;-63
2021/07/24 06:19:32;;;;;;;13.68;9.73;;;;;;;22.16;62.09;100349.19;5075849;28;20044;-63
2021/07/24 06:21:59;;;;;;;9.23;4.65;;;;;;;22.23;62.01;100351.19;5058235;28;20507;-64
2021/07/24 06:24:26;;;;;;;10.40;4.43;;;;;;;22.23;62.11;100339.94;5075215;28;20061;-64
2021/07/24 06:26:54;;;;;;;10.18;4.88;;;;;;;22.38;61.25;100343.56;5075796;28;20056;-63
2021/07/24 06:29:21;;;;;;;15.27;5.10;;;;;;;22.12;61.40;100347.59;5057081;28;20044;-64
2021/07/24 06:31:48;;;;;;;11.43;4.70;;;;;;;22.11;61.32;100349.56;5057820;28;20059;-63
2021/07/24 06:34:15;;;;;;;10.55;4.65;;;;;;;22.27;61.04;100357.59;5075472;28;20040;-64
2021/07/24 06:36:42;;;;;;;10.70;4.18;;;;;;;22.40;60.39;100352.41;5075846;28;20044;-63
2021/07/24 06:39:10;;;;;;;10.88;4.38;;;;;;;22.46;59.38;100345.16;5075123;28;20048;-64
2021/07/24 06:41:41;;;;;;;10.77;4.20;;;;;;;22.27;59.29;100341.56;5075677;28;20068;-64
2021/07/24 06:44:08;;;;;;;9.07;4.03;;;;;;;21.94;60.60;100346.75;5075610;28;20053;-64
2021/07/24 06:46:36;;;;;;;13.13;4.47;;;;;;;22.07;60.45;100342.38;5075536;28;20040;-64
2021/07/24 06:49:04;;;;;;;9.43;4.57;;;;;;;22.21;59.88;100350.81;5075269;28;20063;-64
2021/07/24 06:51:31;;;;;;;15.38;9.35;;;;;;;22.27;59.50;100343.56;5075316;28;20037;-64
2021/07/24 06:53:58;;;;;;;12.75;6.65;;;;;;;22.29;59.88;100341.97;5057158;28;20063;-63
2021/07/24 06:56:26;;;;;;;8.52;4.05;;;;;;;22.17;59.78;100350.00;5083360;28;20055;-64
2021/07/24 06:58:53;;;;;;;9.38;3.92;;;;;;;22.05;60.44;100365.22;5095425;28;20059;-63
2021/07/24 07:01:20;;;;;;;11.02;3.92;;;;;;;22.07;59.93;100345.19;5094997;28;20055;-63
2021/07/24 07:03:50;;;;;;;9.27;3.78;;;;;;;22.17;59.42;100355.59;5095490;28;20039;-64
2021/07/24 07:06:17;;;;;;;9.98;4.47;;;;;;;22.42;59.58;100347.97;5095644;28;20062;-64
2021/07/24 07:08:44;;;;;;;9.48;3.95;;;;;;;22.50;58.74;100351.56;5094836;28;20048;-64
2021/07/24 07:11:13;;;;;;;8.80;3.90;;;;;;;22.51;58.68;100351.16;5095313;28;20107;-64
2021/07/24 07:13:40;;;;;;;9.77;4.07;;;;;;;22.48;58.59;100351.97;5077322;28;20058;-63
2021/07/24 07:16:08;;;;;;;10.63;4.07;;;;;;;22.64;57.67;100349.59;5095082;28;20055;-64
2021/07/24 07:18:37;;;;;;;8.90;4.10;;;;;;;22.41;59.09;100346.38;5095096;28;20427;-64
2021/07/24 07:21:07;;;;;;;11.35;4.68;;;;;;;22.46;58.82;100340.34;5094794;28;20040;-63
2021/07/24 07:23:34;;;;;;;;;;;;;;;22.51;58.56;100345.56;5095292;28;20055;-63
2021/07/24 07:26:01;;;;;;;10.75;4.28;;;;;;;22.58;59.01;100353.22;5095049;28;19927;-62
2021/07/24 07:28:29;;;;;;;12.43;5.50;;;;;;;22.65;58.61;100348.38;5094970;28;20534;-63
2021/07/24 07:30:58;;;;;;;9.82;4.28;;;;;;;22.97;57.42;100351.13;5076566;28;20055;-63
2021/07/24 07:33:25;;;;;;;10.73;5.35;;;;;;;22.86;57.55;100362.38;5094489;28;20048;-64
2021/07/24 07:35:52;;;;;;;12.18;5.07;;;;;;;23.05;57.27;100353.50;5095090;28;20048;-63
2021/07/24 07:38:20;;;;;;;14.52;5.95;;;;;;;23.33;56.80;100355.44;5094873;28;20056;-63
2021/07/24 07:40:47;;;;;;;13.73;6.00;;;;;;;23.71;55.58;100350.84;5076532;28;20063;-64
2021/07/24 07:43:14;;;;;;;11.07;4.47;;;;;;;23.61;54.72;100360.91;5094687;28;20044;-63
2021/07/24 07:45:41;;;;;;;15.13;8.25;;;;;;;23.61;54.91;100369.34;5094518;28;20048;-63
2021/07/24 07:48:08;;;;;;;11.77;6.38;;;;;;;23.65;54.83;100369.34;5093972;28;20048;-63
2021/07/24 07:50:36;;;;;;;10.20;4.50;;;;;;;23.86;54.10;100370.03;5094337;28;20126;-63
2021/07/24 07:53:04;;;;;;;13.57;4.70;;;;;;;23.95;53.92;100366.75;5094268;28;20690;-64
2021/07/24 07:55:31;;;;;;;9.88;3.75;;;;;;;24.66;51.84;100359.34;5075524;28;20059;-64
2021/07/24 07:57:59;;;;;;;14.52;6.40;;;;;;;24.34;52.29;100368.09;5074044;28;20049;-63
2021/07/24 08:00:26;;;;;;;13.88;4.55;;;;;;;24.34;52.24;100358.84;5073674;28;20553;-64
2021/07/24 08:02:54;;;;;;;16.17;4.72;;;;;;;24.40;52.64;100365.63;5073795;28;20041;-64
2021/07/24 08:05:21;;;;;;;11.30;3.88;;;;;;;24.45;51.48;100356.72;5074030;28;20400;-64
2021/07/24 08:07:49;;;;;;;10.60;3.70;;;;;;;24.20;51.95;100358.97;5074390;28;20063;-64
2021/07/24 08:10:17;;;;;;;7.85;3.58;;;;;;;24.34;51.89;100356.81;5073656;28;20056;-65
2021/07/24 08:12:44;;;;;;;9.55;3.50;;;;;;;24.77;50.83;100346.00;5039268;28;20500;-67
2021/07/24 08:15:11;;;;;;;11.70;3.42;;;;;;;25.01;50.34;100350.56;5055565;28;20060;-65
2021/07/24 08:17:39;;;;;;;9.95;3.33;;;;;;;24.83;50.20;100344.31;5073751;28;20052;-64
2021/07/24 08:20:07;;;;;;;9.40;3.70;;;;;;;24.61;50.83;100350.56;5073682;28;20063;-65
2021/07/24 08:22:35;;;;;;;12.27;3.67;;;;;;;24.83;50.16;100343.50;5073912;28;20052;-64
2021/07/24 08:25:03;;;;;;;10.77;3.88;;;;;;;24.34;50.17;100345.56;5074006;28;20519;-63
2021/07/24 08:27:32;;;;;;;11.48;4.32;;;;;;;23.79;52.36;100343.94;5055396;28;20055;-64
2021/07/24 08:29:59;;;;;;;15.23;4.75;;;;;;;24.14;52.15;100346.53;5073684;28;20045;-64
2021/07/24 08:32:26;;;;;;;8.43;4.07;;;;;;;24.01;51.86;100340.59;5073721;28;20049;-63
2021/07/24 08:34:53;;;;;;;12.65;4.80;;;;;;;24.31;51.71;100334.34;5073870;28;20045;-64
2021/07/24 08:37:21;;;;;;;10.07;3.85;;;;;;;24.46;51.33;100333.78;5073597;28;20052;-63
2021/07/24 08:39:48;;;;;;;11.00;3.75;;;;;;;24.31;51.85;100335.13;5073345;28;20521;-63
2021/07/24 08:42:29;;;;;;;11.65;4.38;;;;;;;24.53;51.23;100325.28;5073708;28;20110;-64
2021/07/24 08:44:58;;;;;;;9.52;4.85;;;;;;;25.07;50.17;100331.97;5074227;28;20044;-65
2021/07/24 08:47:26;;;;;;;12.25;5.10;;;;;;;25.09;49.95;100328.75;5056080;28;20053;-63
2021/07/24 08:49:53;;;;;;;7.43;3.03;;;;;;;24.75;49.50;100327.91;5073514;28;20052;-65
2021/07/24 08:52:22;;;;;;;7.53;3.30;;;;;;;24.36;50.61;100334.69;5076755;28;20052;-64
2021/07/24 08:54:50;;;;;;;7.90;3.92;;;;;;;24.21;51.47;100333.22;5077474;28;20049;-63
2021/07/24 08:57:20;;;;;;;13.52;4.18;;;;;;;24.59;50.59;100324.81;5074872;28;20063;-64
2021/07/24 08:59:49;;;;;;;12.48;4.05;;;;;;;24.70;50.14;100317.09;5097618;28;20060;-64
2021/07/24 09:02:21;;;;;;;11.05;3.55;;;;;;;24.47;50.71;100329.78;5079786;28;20059;-65
2021/07/24 09:04:49;;;;;;;7.40;3.00;;;;;;;24.24;51.46;100325.94;5097924;28;20399;-65
2021/07/24 09:07:17;;;;;;;8.90;3.70;;;;;;;24.25;51.21;100330.38;5079562;28;20047;-64
2021/07/24 09:09:45;;;;;;;9.80;3.60;;;;;;;24.45;50.03;100342.66;5062496;28;20052;-64
2021/07/24 09:12:13;;;;;;;10.98;3.60;;;;;;;24.38;50.85;100337.09;5096966;28;20104;-63
2021/07/24 09:14:40;;;;;;;9.30;3.40;;;;;;;24.71;49.70;100329.94;5079516;28;20052;-64
2021/07/24 09:17:10;;;;;;;9.55;3.53;;;;;;;24.65;50.79;100323.16;5097510;28;20403;-64
2021/07/24 09:19:38;;;;;;;11.13;3.50;;;;;;;24.37;50.29;100325.00;5078937;28;20056;-63
2021/07/24 09:22:33;;;;;;;15.05;3.78;;;;;;;24.52;50.83;100318.06;5097432;28;20063;-63
2021/07/24 09:25:16;;;;;;;12.43;3.90;;;;;;;24.73;50.37;100331.16;5096973;28;20067;-63
2021/07/24 09:27:45;;;;;;;10.85;3.65;;;;;;;24.96;50.33;100331.31;5097324;28;20048;-64
2021/07/24 09:30:28;;;;;;;9.88;3.17;;;;;;;24.98;48.80;100323.22;5097120;28;20047;-64
2021/07/24 09:33:15;;;;;;;9.93;3.45;;;;;;;24.44;49.12;100333.41;5096604;28;20071;-64
2021/07/24 09:36:00;;;;;;;8.02;3.15;;;;;;;23.90;51.11;100334.22;5097444;28;20059;-64
2021/07/24 09:38:37;;;;;;;8.73;2.92;;;;;;;24.09;50.88;100321.66;5096876;28;20063;-64
2021/07/24 09:41:08;;;;;;;9.60;4.10;;;;;;;24.36;50.66;100331.88;5079389;28;20407;-64
2021/07/24 09:43:36;;;;;;;9.35;3.28;;;;;;;24.47;50.64;100332.59;5078797;28;20044;-64
2021/07/24 09:46:10;;;;;;;7.47;3.13;;;;;;;24.55;49.63;100335.34;5079001;28;20048;-64
2021/07/24 09:48:38;;;;;;;10.18;3.42;;;;;;;24.59;49.08;100338.91;5096853;28;20048;-64
2021/07/24 09:51:05;;;;;;;11.07;3.33;;;;;;;24.71;49.40;100333.56;5078514;28;20767;-64
2021/07/24 09:53:45;;;;;;;13.93;5.78;;;;;;;24.88;49.56;100332.59;5096473;28;20582;-63
2021/07/24 09:56:17;;;;;;;11.52;3.75;;;;;;;25.30;48.50;100336.91;5072189;28;20055;-63
2021/07/24 09:58:44;;;;;;;9.70;3.63;;;;;;;24.94;48.45;100336.56;5076609;28;20063;-65
2021/07/24 10:01:18;;;;;;;8.57;3.03;;;;;;;24.78;49.22;100338.34;5076157;28;20048;-64
2021/07/24 10:03:50;;;;;;;10.13;3.50;;;;;;;24.87;48.38;100335.81;5075226;28;20047;-65
2021/07/24 10:06:18;;;;;;;9.43;3.00;;;;;;;24.98;48.42;100345.78;5057585;28;20060;-64
2021/07/24 10:08:48;;;;;;;12.02;3.33;;;;;;;24.89;48.65;100350.31;5076338;28;20056;-63
2021/07/24 10:11:15;;;;;;;8.52;3.15;;;;;;;25.12;48.02;100347.63;5058026;28;20048;-64
2021/07/24 10:13:43;;;;;;;9.32;3.00;;;;;;;25.28;47.75;100351.44;5076193;28;20044;-64
2021/07/24 10:16:10;;;;;;;8.13;3.30;;;;;;;25.37;46.49;100350.97;5058544;28;20048;-65
2021/07/24 10:18:40;;;;;;;14.70;3.53;;;;;;;25.39;46.75;100340.88;5058377;28;20049;-64
2021/07/24 10:21:07;;;;;;;12.00;2.72;;;;;;;25.21;46.95;100353.56;5075864;28;20041;-64
2021/07/24 10:23:35;;;;;;;8.93;3.40;;;;;;;24.95;48.07;100343.78;5057719;28;20052;-64
2021/07/24 10:26:08;;;;;;;10.73;3.30;;;;;;;25.24;47.51;100349.91;5075963;28;20441;-64
2021/07/24 10:28:38;;;;;;;9.73;3.83;;;;;;;25.49;46.82;100339.09;5075552;28;20052;-65
2021/07/24 10:31:12;;;;;;;;;;;;;;;25.28;47.19;100331.69;5076075;28;20518;-64
2021/07/24 10:33:40;;;;;;;11.00;4.20;;;;;;;25.50;46.60;100335.91;5040826;28;19927;-64
2021/07/24 10:36:11;;;;;;;11.07;3.17;;;;;;;26.00;45.38;100335.97;5057882;28;20059;-64
2021/07/24 10:38:56;;;;;;;9.38;3.17;;;;;;;26.24;44.59;100326.31;5075641;28;20412;-64
2021/07/24 10:41:23;;;;;;;9.55;3.13;;;;;;;25.84;44.60;100327.31;5075402;28;20048;-64
2021/07/24 10:44:03;;;;;;;9.55;2.60;;;;;;;25.87;45.13;100332.13;5075500;28;20048;-63
2021/07/24 10:46:40;;;;;;;12.02;3.45;;;;;;;26.18;45.03;100330.88;5075463;28;20049;-63
2021/07/24 10:49:08;;;;;;;7.60;2.92;;;;;;;26.06;44.59;100328.66;5075431;28;20107;-64
2021/07/24 10:51:54;;;;;;;8.35;2.78;;;;;;;26.19;44.80;100318.34;5075163;28;20056;-64
2021/07/24 10:54:23;;;;;;;14.15;3.03;;;;;;;26.55;43.45;100316.47;5074950;28;20048;-64
2021/07/24 10:56:51;;;;;;;10.70;2.90;;;;;;;26.23;43.81;100310.59;5086904;28;20055;-64
2021/07/24 10:59:23;;;;;;;16.00;2.97;;;;;;;26.28;44.22;100310.13;5095631;28;20055;-66
2021/07/24 11:01:58;;;;;;;11.30;3.40;;;;;;;26.63;43.76;100312.31;5095463;28;20055;-65
2021/07/24 11:04:35;;;;;;;9.77;3.03;;;;;;;26.82;43.18;100304.31;5095136;28;20064;-65
2021/07/24 11:07:26;;;;;;;11.75;3.13;;;;;;;26.81;42.58;100306.34;5095001;28;20052;-65
2021/07/24 11:09:53;;;;;;;7.53;3.10;;;;;;;26.61;42.95;100295.00;5094617;28;20048;-65
2021/07/24 11:12:50;;;;;;;6.72;2.83;;;;;;;26.65;42.13;100300.56;5095114;28;20166;-64
2021/07/24 11:15:20;;;;;;;6.85;2.40;;;;;;;26.27;42.67;100308.53;5073599;28;20048;-65
2021/07/24 11:18:25;;;;;;;7.72;2.58;;;;;;;26.11;43.70;100319.69;5077145;28;20421;-64
2021/07/24 11:20:52;;;;;;;10.18;2.95;;;;;;;26.44;43.47;100317.91;5094801;28;20056;-64
2021/07/24 11:23:20;;;;;;;9.93;3.10;;;;;;;26.57;43.22;100310.41;5095034;28;20505;-64
2021/07/24 11:25:47;;;;;;;9.57;3.00;;;;;;;26.62;43.59;100305.03;5095053;28;20048;-63
2021/07/24 11:28:18;;;;;;;11.23;4.90;;;;;;;26.72;43.46;100305.31;5094907;28;20044;-63
2021/07/24 11:30:45;;;;;;;10.48;5.25;;;;;;;26.87;43.19;100303.81;5094748;28;20044;-63
2021/07/24 11:33:17;;;;;;;8.32;3.10;;;;;;;26.86;43.33;100300.19;5094771;28;20052;-63
2021/07/24 11:35:47;;;;;;;8.88;3.08;;;;;;;26.83;42.42;100295.41;5094698;28;20073;-64